SBOSBO TLS / LFBO
Speedbird OnlineSpeedbird Online TLS / LFBO

Toulouse-Blagnac Airport
21:07 16.8°C

Location Toulouse, France
Latitude: 43.629101
Longitude: 1.36382
Web Airport Website | Wikipedia
Altitude 152 Meter / 499 Feet
Distance 880 KM / 547 Miles
from London.
Time Zone UTC +2 hours (Europe/Paris)
Codes IATA: TLS
ICAO: LFBO
Currency £1 equals EUR 1.12
Runways
RunwayLength (m)Surface
14L3000Asphalt
14R3500Asphalt
32L3500Asphalt
32R3000Asphalt
Radio
TypeDescriptionFrequency
AFISTOULOUSE INFO121.25
APPAPP121.1
APPTOULOUSE APP125.175
ATISATIS123.125
CLDCLNC DEL121.7
GNDGND121.9
TWRTWR118.1
Live ATC
METAR LFBO 241900Z AUTO 22007KT 9999 ///TCU 17/12 Q1015 TEMPO 4000 -SHRA BECMG 30010KT
TAF TAF LFBO 241700Z 2418/2524 30010KT 9999 SCT020 BKN080 TEMPO 2418/2421 4000 -SHRA BKN030TCU BECMG 2502/2504 BKN013 TEMPO 2504/2508 BKN007 BECMG 2509/2511 SCT020 BECMG 2516/2518 CAVOK
Weather As Of 24 Sep 2022 21:07
Description Broken clouds
Wind 19 km/h from West (260°)
Cloud Cover 82%
Precipitation Rain: none, Snow: none
Sunrise 07:43
Sunset 19:49
Lounges La Croix du Sud Lounge , Main
Rotations During the last 90 days there were
183 flights from LHR
176 flights to LHR


© 2017-2022 Speedbird Online